sensor_id;sensor_type;location;lat;lon;timestamp;pressure;altitude;pressure_sealevel;temperature
27715;BMP280;16051;53.024;8.630;2023-01-16T00:00:47;99641.06;;;5.61
27715;BMP280;16051;53.024;8.630;2023-01-16T00:04:50;99634.88;;;5.51
27715;BMP280;16051;53.024;8.630;2023-01-16T00:08:52;99622.09;;;5.48
27715;BMP280;16051;53.024;8.630;2023-01-16T00:12:54;99623.03;;;5.45
27715;BMP280;16051;53.024;8.630;2023-01-16T00:16:57;99609.19;;;5.39
27715;BMP280;16051;53.024;8.630;2023-01-16T00:21:00;99606.78;;;5.41
27715;BMP280;16051;53.024;8.630;2023-01-16T00:25:21;99599.31;;;5.42
27715;BMP280;16051;53.024;8.630;2023-01-16T00:29:23;99602.34;;;5.44
27715;BMP280;16051;53.024;8.630;2023-01-16T00:33:27;99599.16;;;5.36
27715;BMP280;16051;53.024;8.630;2023-01-16T00:37:29;99598.41;;;5.36
27715;BMP280;16051;53.024;8.630;2023-01-16T00:41:32;99586.69;;;5.35
27715;BMP280;16051;53.024;8.630;2023-01-16T00:45:41;99590.06;;;5.30
27715;BMP280;16051;53.024;8.630;2023-01-16T00:49:45;99583.38;;;5.31
27715;BMP280;16051;53.024;8.630;2023-01-16T00:53:47;99572.44;;;5.31
27715;BMP280;16051;53.024;8.630;2023-01-16T00:57:49;99565.72;;;5.32
27715;BMP280;16051;53.024;8.630;2023-01-16T01:01:51;99552.03;;;5.32
27715;BMP280;16051;53.024;8.630;2023-01-16T01:05:55;99543.22;;;5.28
27715;BMP280;16051;53.024;8.630;2023-01-16T01:10:08;99546.38;;;5.36
27715;BMP280;16051;53.024;8.630;2023-01-16T01:14:11;99535.31;;;5.30
27715;BMP280;16051;53.024;8.630;2023-01-16T01:18:13;99534.97;;;5.37
27715;BMP280;16051;53.024;8.630;2023-01-16T01:22:16;99520.81;;;5.39
27715;BMP280;16051;53.024;8.630;2023-01-16T01:26:49;99518.72;;;5.34
27715;BMP280;16051;53.024;8.630;2023-01-16T01:31:11;99506.25;;;5.33
27715;BMP280;16051;53.024;8.630;2023-01-16T01:35:14;99498.19;;;5.38
27715;BMP280;16051;53.024;8.630;2023-01-16T01:39:19;99483.72;;;5.38
27715;BMP280;16051;53.024;8.630;2023-01-16T01:43:28;99474.00;;;5.37
27715;BMP280;16051;53.024;8.630;2023-01-16T01:47:45;99466.06;;;5.39
27715;BMP280;16051;53.024;8.630;2023-01-16T01:51:51;99460.47;;;5.33
27715;BMP280;16051;53.024;8.630;2023-01-16T01:55:58;99448.94;;;5.29
27715;BMP280;16051;53.024;8.630;2023-01-16T02:00:07;99451.84;;;5.26
27715;BMP280;16051;53.024;8.630;2023-01-16T02:04:19;99441.03;;;5.31
27715;BMP280;16051;53.024;8.630;2023-01-16T02:08:29;99436.34;;;5.23
27715;BMP280;16051;53.024;8.630;2023-01-16T02:12:35;99424.53;;;5.17
27715;BMP280;16051;53.024;8.630;2023-01-16T02:16:38;99426.78;;;5.18
27715;BMP280;16051;53.024;8.630;2023-01-16T02:21:25;99417.38;;;5.19
27715;BMP280;16051;53.024;8.630;2023-01-16T02:31:11;99401.97;;;5.22
27715;BMP280;16051;53.024;8.630;2023-01-16T02:35:57;99395.94;;;5.18
27715;BMP280;16051;53.024;8.630;2023-01-16T02:40:16;99390.41;;;5.27
27715;BMP280;16051;53.024;8.630;2023-01-16T02:44:29;99388.94;;;5.17
27715;BMP280;16051;53.024;8.630;2023-01-16T02:48:49;99367.34;;;5.19
27715;BMP280;16051;53.024;8.630;2023-01-16T02:52:59;99357.44;;;5.21
27715;BMP280;16051;53.024;8.630;2023-01-16T02:57:11;99348.00;;;5.22
27715;BMP280;16051;53.024;8.630;2023-01-16T03:01:17;99332.88;;;5.12
27715;BMP280;16051;53.024;8.630;2023-01-16T03:05:21;99344.16;;;5.05
27715;BMP280;16051;53.024;8.630;2023-01-16T03:09:34;99330.19;;;5.03
27715;BMP280;16051;53.024;8.630;2023-01-16T03:14:01;99306.81;;;5.02
27715;BMP280;16051;53.024;8.630;2023-01-16T03:18:17;99315.47;;;5.01
27715;BMP280;16051;53.024;8.630;2023-01-16T03:22:31;99305.22;;;4.86
27715;BMP280;16051;53.024;8.630;2023-01-16T03:26:45;99295.50;;;4.85
27715;BMP280;16051;53.024;8.630;2023-01-16T03:30:52;99301.66;;;4.71
27715;BMP280;16051;53.024;8.630;2023-01-16T03:35:02;99297.72;;;4.72
27715;BMP280;16051;53.024;8.630;2023-01-16T03:39:09;99295.66;;;4.58
27715;BMP280;16051;53.024;8.630;2023-01-16T03:43:18;99289.47;;;4.48
27715;BMP280;16051;53.024;8.630;2023-01-16T03:47:34;99286.72;;;4.48
27715;BMP280;16051;53.024;8.630;2023-01-16T03:51:45;99288.69;;;4.57
27715;BMP280;16051;53.024;8.630;2023-01-16T03:55:58;99269.19;;;4.64
27715;BMP280;16051;53.024;8.630;2023-01-16T04:00:04;99266.00;;;4.66
27715;BMP280;16051;53.024;8.630;2023-01-16T04:04:12;99263.44;;;4.62
27715;BMP280;16051;53.024;8.630;2023-01-16T04:08:22;99262.16;;;4.72
27715;BMP280;16051;53.024;8.630;2023-01-16T04:12:33;99253.78;;;4.76
27715;BMP280;16051;53.024;8.630;2023-01-16T04:16:37;99244.63;;;4.79
27715;BMP280;16051;53.024;8.630;2023-01-16T04:20:44;99230.88;;;4.73
27715;BMP280;16051;53.024;8.630;2023-01-16T04:24:48;99230.38;;;4.75
27715;BMP280;16051;53.024;8.630;2023-01-16T04:29:17;99228.13;;;4.73
27715;BMP280;16051;53.024;8.630;2023-01-16T04:33:19;99214.44;;;4.73
27715;BMP280;16051;53.024;8.630;2023-01-16T04:37:38;99202.28;;;4.74
27715;BMP280;16051;53.024;8.630;2023-01-16T04:41:40;99192.84;;;4.75
27715;BMP280;16051;53.024;8.630;2023-01-16T04:45:45;99184.56;;;4.70
27715;BMP280;16051;53.024;8.630;2023-01-16T04:49:47;99189.72;;;4.68
27715;BMP280;16051;53.024;8.630;2023-01-16T04:53:50;99166.91;;;4.71
27715;BMP280;16051;53.024;8.630;2023-01-16T04:57:52;99164.75;;;4.75
27715;BMP280;16051;53.024;8.630;2023-01-16T05:01:56;99171.81;;;4.81
27715;BMP280;16051;53.024;8.630;2023-01-16T05:05:58;99157.91;;;4.94
27715;BMP280;16051;53.024;8.630;2023-01-16T05:10:01;99160.63;;;4.94
27715;BMP280;16051;53.024;8.630;2023-01-16T05:14:04;99153.47;;;4.96
27715;BMP280;16051;53.024;8.630;2023-01-16T05:18:10;99156.97;;;4.97
27715;BMP280;16051;53.024;8.630;2023-01-16T05:22:12;99153.94;;;4.95
27715;BMP280;16051;53.024;8.630;2023-01-16T05:26:14;99146.78;;;4.97
27715;BMP280;16051;53.024;8.630;2023-01-16T05:30:16;99143.59;;;4.99
27715;BMP280;16051;53.024;8.630;2023-01-16T05:34:22;99140.66;;;5.03
27715;BMP280;16051;53.024;8.630;2023-01-16T05:38:24;99138.47;;;5.07
27715;BMP280;16051;53.024;8.630;2023-01-16T05:42:26;99126.28;;;4.93
27715;BMP280;16051;53.024;8.630;2023-01-16T05:46:28;99128.44;;;4.89
27715;BMP280;16051;53.024;8.630;2023-01-16T05:50:40;99116.75;;;4.88
27715;BMP280;16051;53.024;8.630;2023-01-16T05:54:42;99113.00;;;4.86
27715;BMP280;16051;53.024;8.630;2023-01-16T05:58:44;99107.34;;;4.89
27715;BMP280;16051;53.024;8.630;2023-01-16T06:02:46;99108.91;;;4.81
27715;BMP280;16051;53.024;8.630;2023-01-16T06:06:50;99103.09;;;4.74
27715;BMP280;16051;53.024;8.630;2023-01-16T06:10:52;99094.94;;;4.65
27715;BMP280;16051;53.024;8.630;2023-01-16T06:14:54;99076.25;;;4.63
27715;BMP280;16051;53.024;8.630;2023-01-16T06:18:57;99063.34;;;4.64
27715;BMP280;16051;53.024;8.630;2023-01-16T06:23:01;99059.59;;;4.61
27715;BMP280;16051;53.024;8.630;2023-01-16T06:27:11;99050.41;;;4.50
27715;BMP280;16051;53.024;8.630;2023-01-16T06:31:14;99041.25;;;4.38
27715;BMP280;16051;53.024;8.630;2023-01-16T06:35:16;99040.13;;;4.30
27715;BMP280;16051;53.024;8.630;2023-01-16T06:39:20;99036.69;;;4.20
27715;BMP280;16051;53.024;8.630;2023-01-16T06:43:23;99030.38;;;4.14
27715;BMP280;16051;53.024;8.630;2023-01-16T06:47:25;99031.66;;;4.04
27715;BMP280;16051;53.024;8.630;2023-01-16T06:51:28;99027.31;;;3.97
27715;BMP280;16051;53.024;8.630;2023-01-16T06:55:33;99009.09;;;3.94
27715;BMP280;16051;53.024;8.630;2023-01-16T06:59:36;99023.28;;;3.84
27715;BMP280;16051;53.024;8.630;2023-01-16T07:03:38;99026.03;;;3.84
27715;BMP280;16051;53.024;8.630;2023-01-16T07:08:14;99025.44;;;3.80
27715;BMP280;16051;53.024;8.630;2023-01-16T07:12:18;99006.72;;;3.87
27715;BMP280;16051;53.024;8.630;2023-01-16T07:16:20;99008.38;;;3.94
27715;BMP280;16051;53.024;8.630;2023-01-16T07:20:39;98997.63;;;3.90
27715;BMP280;16051;53.024;8.630;2023-01-16T07:25:10;98993.16;;;3.78
27715;BMP280;16051;53.024;8.630;2023-01-16T07:29:48;98992.34;;;3.87
27715;BMP280;16051;53.024;8.630;2023-01-16T07:33:50;98992.81;;;3.85
27715;BMP280;16051;53.024;8.630;2023-01-16T07:37:53;98984.44;;;3.89
27715;BMP280;16051;53.024;8.630;2023-01-16T07:42:03;98976.88;;;3.84
27715;BMP280;16051;53.024;8.630;2023-01-16T07:46:07;98954.94;;;3.78
27715;BMP280;16051;53.024;8.630;2023-01-16T07:50:09;98965.22;;;3.83
27715;BMP280;16051;53.024;8.630;2023-01-16T07:54:12;98940.34;;;3.81
27715;BMP280;16051;53.024;8.630;2023-01-16T07:58:28;98933.66;;;3.82
27715;BMP280;16051;53.024;8.630;2023-01-16T08:02:32;98933.25;;;3.75
27715;BMP280;16051;53.024;8.630;2023-01-16T08:06:34;98923.88;;;3.76
27715;BMP280;16051;53.024;8.630;2023-01-16T08:10:36;98922.03;;;3.73
27715;BMP280;16051;53.024;8.630;2023-01-16T08:14:39;98900.69;;;3.71
27715;BMP280;16051;53.024;8.630;2023-01-16T08:18:42;98876.91;;;3.86
27715;BMP280;16051;53.024;8.630;2023-01-16T08:22:46;98875.84;;;3.84
27715;BMP280;16051;53.024;8.630;2023-01-16T08:26:48;98872.19;;;3.87
27715;BMP280;16051;53.024;8.630;2023-01-16T08:31:14;98860.69;;;3.83
27715;BMP280;16051;53.024;8.630;2023-01-16T08:35:18;98852.91;;;3.90
27715;BMP280;16051;53.024;8.630;2023-01-16T08:39:20;98842.25;;;3.92
27715;BMP280;16051;53.024;8.630;2023-01-16T08:43:22;98840.91;;;3.88
27715;BMP280;16051;53.024;8.630;2023-01-16T08:47:42;98828.66;;;3.98
27715;BMP280;16051;53.024;8.630;2023-01-16T08:52:03;98825.59;;;4.05
27715;BMP280;16051;53.024;8.630;2023-01-16T08:56:06;98820.75;;;4.15
27715;BMP280;16051;53.024;8.630;2023-01-16T09:00:18;98829.22;;;4.17
27715;BMP280;16051;53.024;8.630;2023-01-16T09:04:21;98814.53;;;4.14
27715;BMP280;16051;53.024;8.630;2023-01-16T09:08:24;98801.16;;;4.16
27715;BMP280;16051;53.024;8.630;2023-01-16T09:12:26;98792.13;;;4.25
27715;BMP280;16051;53.024;8.630;2023-01-16T09:16:46;98784.09;;;4.21
27715;BMP280;16051;53.024;8.630;2023-01-16T09:20:50;98779.97;;;4.26
27715;BMP280;16051;53.024;8.630;2023-01-16T09:25:28;98778.53;;;4.30
27715;BMP280;16051;53.024;8.630;2023-01-16T09:29:31;98774.31;;;4.29
27715;BMP280;16051;53.024;8.630;2023-01-16T09:33:33;98761.56;;;4.41
27715;BMP280;16051;53.024;8.630;2023-01-16T09:37:35;98752.22;;;4.47
27715;BMP280;16051;53.024;8.630;2023-01-16T09:41:55;98743.59;;;4.55
27715;BMP280;16051;53.024;8.630;2023-01-16T09:46:22;98737.63;;;4.56
27715;BMP280;16051;53.024;8.630;2023-01-16T09:50:32;98718.59;;;4.62
27715;BMP280;16051;53.024;8.630;2023-01-16T09:54:51;98708.47;;;4.68
27715;BMP280;16051;53.024;8.630;2023-01-16T09:59:25;98708.06;;;4.75
27715;BMP280;16051;53.024;8.630;2023-01-16T10:03:29;98693.16;;;4.76
27715;BMP280;16051;53.024;8.630;2023-01-16T10:07:49;98683.19;;;4.73
27715;BMP280;16051;53.024;8.630;2023-01-16T10:11:58;98674.06;;;4.81
27715;BMP280;16051;53.024;8.630;2023-01-16T10:16:15;98664.00;;;4.93
27715;BMP280;16051;53.024;8.630;2023-01-16T10:20:50;98660.25;;;4.90
27715;BMP280;16051;53.024;8.630;2023-01-16T10:25:15;98644.78;;;5.08
27715;BMP280;16051;53.024;8.630;2023-01-16T10:29:25;98622.19;;;5.13
27715;BMP280;16051;53.024;8.630;2023-01-16T10:34:05;98613.47;;;5.14
27715;BMP280;16051;53.024;8.630;2023-01-16T10:38:24;98597.69;;;5.29
27715;BMP280;16051;53.024;8.630;2023-01-16T10:42:35;98587.50;;;5.30
27715;BMP280;16051;53.024;8.630;2023-01-16T10:46:55;98579.78;;;5.28
27715;BMP280;16051;53.024;8.630;2023-01-16T10:51:16;98560.69;;;5.39
27715;BMP280;16051;53.024;8.630;2023-01-16T10:55:18;98547.31;;;5.47
27715;BMP280;16051;53.024;8.630;2023-01-16T10:59:24;98533.69;;;5.53
27715;BMP280;16051;53.024;8.630;2023-01-16T11:03:34;98528.97;;;5.53
27715;BMP280;16051;53.024;8.630;2023-01-16T11:07:39;98519.50;;;5.54
27715;BMP280;16051;53.024;8.630;2023-01-16T11:11:55;98505.56;;;5.52
27715;BMP280;16051;53.024;8.630;2023-01-16T11:16:24;98481.84;;;5.43
27715;BMP280;16051;53.024;8.630;2023-01-16T11:20:46;98481.56;;;5.36
27715;BMP280;16051;53.024;8.630;2023-01-16T11:24:54;98458.47;;;5.42
27715;BMP280;16051;53.024;8.630;2023-01-16T11:29:00;98443.75;;;5.40
27715;BMP280;16051;53.024;8.630;2023-01-16T11:33:03;98440.31;;;5.45
27715;BMP280;16051;53.024;8.630;2023-01-16T11:37:13;98423.91;;;5.51
27715;BMP280;16051;53.024;8.630;2023-01-16T11:41:28;98413.41;;;5.43
27715;BMP280;16051;53.024;8.630;2023-01-16T11:45:31;98401.19;;;5.39
27715;BMP280;16051;53.024;8.630;2023-01-16T11:49:54;98387.31;;;5.42
27715;BMP280;16051;53.024;8.630;2023-01-16T11:54:15;98373.63;;;5.42
27715;BMP280;16051;53.024;8.630;2023-01-16T11:58:41;98364.38;;;5.34
27715;BMP280;16051;53.024;8.630;2023-01-16T12:07:52;98342.72;;;5.36
27715;BMP280;16051;53.024;8.630;2023-01-16T12:12:26;98331.03;;;5.30
27715;BMP280;16051;53.024;8.630;2023-01-16T12:17:12;98320.03;;;5.25
27715;BMP280;16051;53.024;8.630;2023-01-16T12:21:33;98310.34;;;5.24
27715;BMP280;16051;53.024;8.630;2023-01-16T12:26:09;98305.13;;;5.20
27715;BMP280;16051;53.024;8.630;2023-01-16T12:30:27;98282.00;;;5.32
27715;BMP280;16051;53.024;8.630;2023-01-16T12:35:21;98264.59;;;5.30
27715;BMP280;16051;53.024;8.630;2023-01-16T12:39:37;98261.38;;;5.31
27715;BMP280;16051;53.024;8.630;2023-01-16T12:43:55;98250.69;;;5.28
27715;BMP280;16051;53.024;8.630;2023-01-16T12:48:15;98245.94;;;5.28
27715;BMP280;16051;53.024;8.630;2023-01-16T12:52:47;98226.31;;;5.41
27715;BMP280;16051;53.024;8.630;2023-01-16T12:57:11;98216.13;;;5.41
27715;BMP280;16051;53.024;8.630;2023-01-16T13:01:19;98209.13;;;5.40
27715;BMP280;16051;53.024;8.630;2023-01-16T13:05:27;98190.00;;;5.46
27715;BMP280;16051;53.024;8.630;2023-01-16T13:09:39;98183.78;;;5.45
27715;BMP280;16051;53.024;8.630;2023-01-16T13:13:50;98173.81;;;5.48
27715;BMP280;16051;53.024;8.630;2023-01-16T13:17:58;98154.66;;;5.37
27715;BMP280;16051;53.024;8.630;2023-01-16T13:22:14;98161.38;;;5.47
27715;BMP280;16051;53.024;8.630;2023-01-16T13:26:25;98159.91;;;5.46
27715;BMP280;16051;53.024;8.630;2023-01-16T13:30:28;98149.19;;;5.59
27715;BMP280;16051;53.024;8.630;2023-01-16T13:34:35;98151.44;;;5.50
27715;BMP280;16051;53.024;8.630;2023-01-16T13:38:56;98148.44;;;5.47
27715;BMP280;16051;53.024;8.630;2023-01-16T13:43:08;98144.72;;;5.45
27715;BMP280;16051;53.024;8.630;2023-01-16T13:47:32;98136.00;;;5.41
27715;BMP280;16051;53.024;8.630;2023-01-16T13:51:42;98145.72;;;5.42
27715;BMP280;16051;53.024;8.630;2023-01-16T13:55:47;98142.44;;;5.32
27715;BMP280;16051;53.024;8.630;2023-01-16T13:59:53;98128.28;;;5.23
27715;BMP280;16051;53.024;8.630;2023-01-16T14:04:29;98128.28;;;5.17
27715;BMP280;16051;53.024;8.630;2023-01-16T14:08:51;98118.31;;;5.09
27715;BMP280;16051;53.024;8.630;2023-01-16T14:13:24;98112.56;;;5.01
27715;BMP280;16051;53.024;8.630;2023-01-16T14:18:00;98106.88;;;5.05
27715;BMP280;16051;53.024;8.630;2023-01-16T14:22:03;98084.47;;;4.95
27715;BMP280;16051;53.024;8.630;2023-01-16T14:26:28;98078.50;;;4.96
27715;BMP280;16051;53.024;8.630;2023-01-16T14:30:34;98073.78;;;4.91
27715;BMP280;16051;53.024;8.630;2023-01-16T14:34:41;98063.09;;;4.93
27715;BMP280;16051;53.024;8.630;2023-01-16T14:38:52;98059.38;;;4.91
27715;BMP280;16051;53.024;8.630;2023-01-16T14:42:56;98043.19;;;4.93
27715;BMP280;16051;53.024;8.630;2023-01-16T14:47:25;98039.97;;;4.89
27715;BMP280;16051;53.024;8.630;2023-01-16T14:51:59;98041.47;;;4.95
27715;BMP280;16051;53.024;8.630;2023-01-16T14:56:27;98025.56;;;4.94
27715;BMP280;16051;53.024;8.630;2023-01-16T15:00:30;98021.06;;;4.96
27715;BMP280;16051;53.024;8.630;2023-01-16T15:04:41;98018.59;;;4.93
27715;BMP280;16051;53.024;8.630;2023-01-16T15:08:49;98018.34;;;4.85
27715;BMP280;16051;53.024;8.630;2023-01-16T15:12:51;98023.03;;;4.85
27715;BMP280;16051;53.024;8.630;2023-01-16T15:17:11;98009.63;;;4.92
27715;BMP280;16051;53.024;8.630;2023-01-16T15:21:33;97997.97;;;4.97
27715;BMP280;16051;53.024;8.630;2023-01-16T15:26:28;97991.75;;;4.97
27715;BMP280;16051;53.024;8.630;2023-01-16T15:30:35;97983.81;;;4.99
27715;BMP280;16051;53.024;8.630;2023-01-16T15:34:37;97986.28;;;4.91
27715;BMP280;16051;53.024;8.630;2023-01-16T15:38:44;97981.81;;;4.94
27715;BMP280;16051;53.024;8.630;2023-01-16T15:42:47;97978.81;;;4.97
27715;BMP280;16051;53.024;8.630;2023-01-16T15:47:32;97974.34;;;5.00
27715;BMP280;16051;53.024;8.630;2023-01-16T15:51:39;97960.41;;;4.98
27715;BMP280;16051;53.024;8.630;2023-01-16T15:55:45;97955.19;;;5.00
27715;BMP280;16051;53.024;8.630;2023-01-16T15:59:55;97956.69;;;5.01
27715;BMP280;16051;53.024;8.630;2023-01-16T16:04:01;97949.72;;;4.94
27715;BMP280;16051;53.024;8.630;2023-01-16T16:08:04;97939.28;;;4.93
27715;BMP280;16051;53.024;8.630;2023-01-16T16:12:09;97941.00;;;4.96
27715;BMP280;16051;53.024;8.630;2023-01-16T16:16:19;97936.56;;;4.93
27715;BMP280;16051;53.024;8.630;2023-01-16T16:20:48;97924.34;;;5.00
27715;BMP280;16051;53.024;8.630;2023-01-16T16:24:53;97922.63;;;5.02
27715;BMP280;16051;53.024;8.630;2023-01-16T16:28:56;97921.63;;;4.94
27715;BMP280;16051;53.024;8.630;2023-01-16T16:33:01;97924.13;;;4.97
27715;BMP280;16051;53.024;8.630;2023-01-16T16:37:04;97906.22;;;4.96
27715;BMP280;16051;53.024;8.630;2023-01-16T16:41:46;97895.78;;;4.95
27715;BMP280;16051;53.024;8.630;2023-01-16T16:46:29;97895.03;;;4.94
27715;BMP280;16051;53.024;8.630;2023-01-16T16:50:35;97896.25;;;5.05
27715;BMP280;16051;53.024;8.630;2023-01-16T16:54:37;97894.28;;;5.05
27715;BMP280;16051;53.024;8.630;2023-01-16T16:58:43;97883.84;;;5.04
27715;BMP280;16051;53.024;8.630;2023-01-16T17:02:48;97887.06;;;5.08
27715;BMP280;16051;53.024;8.630;2023-01-16T17:06:52;97887.06;;;5.08
27715;BMP280;16051;53.024;8.630;2023-01-16T17:10:56;97868.19;;;4.99
27715;BMP280;16051;53.024;8.630;2023-01-16T17:14:58;97864.94;;;5.00
27715;BMP280;16051;53.024;8.630;2023-01-16T17:19:04;97862.22;;;4.89
27715;BMP280;16051;53.024;8.630;2023-01-16T17:23:11;97863.97;;;4.92
27715;BMP280;16051;53.024;8.630;2023-01-16T17:27:21;97862.72;;;4.93
27715;BMP280;16051;53.024;8.630;2023-01-16T17:31:23;97856.28;;;4.79
27715;BMP280;16051;53.024;8.630;2023-01-16T17:35:26;97844.84;;;4.86
27715;BMP280;16051;53.024;8.630;2023-01-16T17:39:30;97853.31;;;4.83
27715;BMP280;16051;53.024;8.630;2023-01-16T17:43:32;97848.09;;;4.79
27715;BMP280;16051;53.024;8.630;2023-01-16T17:48:43;97838.38;;;4.78
27715;BMP280;16051;53.024;8.630;2023-01-16T17:52:46;97831.94;;;4.76
27715;BMP280;16051;53.024;8.630;2023-01-16T17:57:12;97826.72;;;4.67
27715;BMP280;16051;53.024;8.630;2023-01-16T18:01:29;97822.78;;;4.62
27715;BMP280;16051;53.024;8.630;2023-01-16T18:05:33;97812.31;;;4.61
27715;BMP280;16051;53.024;8.630;2023-01-16T18:09:35;97812.59;;;4.57
27715;BMP280;16051;53.024;8.630;2023-01-16T18:13:56;97808.88;;;4.55
27715;BMP280;16051;53.024;8.630;2023-01-16T18:18:27;97800.41;;;4.53
27715;BMP280;16051;53.024;8.630;2023-01-16T18:22:32;97803.88;;;4.53
27715;BMP280;16051;53.024;8.630;2023-01-16T18:26:43;97792.22;;;4.53
27715;BMP280;16051;53.024;8.630;2023-01-16T18:30:48;97783.78;;;4.39
27715;BMP280;16051;53.024;8.630;2023-01-16T18:34:52;97783.28;;;4.52
27715;BMP280;16051;53.024;8.630;2023-01-16T18:38:55;97787.53;;;4.47
27715;BMP280;16051;53.024;8.630;2023-01-16T18:43:15;97781.31;;;4.47
27715;BMP280;16051;53.024;8.630;2023-01-16T18:47:40;97776.34;;;4.40
27715;BMP280;16051;53.024;8.630;2023-01-16T18:52:00;97765.66;;;4.36
27715;BMP280;16051;53.024;8.630;2023-01-16T18:56:22;97760.72;;;4.40
27715;BMP280;16051;53.024;8.630;2023-01-16T19:00:42;97759.44;;;4.41
27715;BMP280;16051;53.024;8.630;2023-01-16T19:05:16;97758.94;;;4.43
27715;BMP280;16051;53.024;8.630;2023-01-16T19:09:18;97753.22;;;4.46
27715;BMP280;16051;53.024;8.630;2023-01-16T19:13:22;97748.78;;;4.43
27715;BMP280;16051;53.024;8.630;2023-01-16T19:17:37;97742.09;;;4.33
27715;BMP280;16051;53.024;8.630;2023-01-16T19:21:42;97750.78;;;4.32
27715;BMP280;16051;53.024;8.630;2023-01-16T19:25:44;97736.84;;;4.35
27715;BMP280;16051;53.024;8.630;2023-01-16T19:29:46;97742.34;;;4.30
27715;BMP280;16051;53.024;8.630;2023-01-16T19:34:41;97724.94;;;4.33
27715;BMP280;16051;53.024;8.630;2023-01-16T19:38:44;97728.44;;;4.22
27715;BMP280;16051;53.024;8.630;2023-01-16T19:42:56;97724.97;;;4.16
27715;BMP280;16051;53.024;8.630;2023-01-16T19:47:18;97719.00;;;4.18
27715;BMP280;16051;53.024;8.630;2023-01-16T19:51:21;97706.84;;;4.19
27715;BMP280;16051;53.024;8.630;2023-01-16T19:55:25;97706.84;;;4.19
27715;BMP280;16051;53.024;8.630;2023-01-16T19:59:33;97691.47;;;4.16
27715;BMP280;16051;53.024;8.630;2023-01-16T20:03:47;97691.22;;;4.19
27715;BMP280;16051;53.024;8.630;2023-01-16T20:07:49;97696.94;;;4.16
27715;BMP280;16051;53.024;8.630;2023-01-16T20:11:56;97686.00;;;4.16
27715;BMP280;16051;53.024;8.630;2023-01-16T20:16:15;97689.97;;;4.15
27715;BMP280;16051;53.024;8.630;2023-01-16T20:20:18;97679.28;;;4.17
27715;BMP280;16051;53.024;8.630;2023-01-16T20:24:21;97674.56;;;4.17
27715;BMP280;16051;53.024;8.630;2023-01-16T20:28:25;97670.09;;;4.20
27715;BMP280;16051;53.024;8.630;2023-01-16T20:32:27;97667.88;;;4.13
27715;BMP280;16051;53.024;8.630;2023-01-16T20:36:29;97658.22;;;4.12
27715;BMP280;16051;53.024;8.630;2023-01-16T20:40:31;97652.50;;;4.15
27715;BMP280;16051;53.024;8.630;2023-01-16T20:44:50;97652.50;;;4.15
27715;BMP280;16051;53.024;8.630;2023-01-16T20:49:19;97667.16;;;4.12
27715;BMP280;16051;53.024;8.630;2023-01-16T20:53:22;97659.94;;;4.15
27715;BMP280;16051;53.024;8.630;2023-01-16T20:57:24;97656.19;;;4.18
27715;BMP280;16051;53.024;8.630;2023-01-16T21:01:28;97658.22;;;4.12
27715;BMP280;16051;53.024;8.630;2023-01-16T21:05:31;97660.94;;;4.12
27715;BMP280;16051;53.024;8.630;2023-01-16T21:09:34;97647.03;;;4.15
27715;BMP280;16051;53.024;8.630;2023-01-16T21:13:36;97650.25;;;4.19
27715;BMP280;16051;53.024;8.630;2023-01-16T21:17:57;97652.22;;;4.13
27715;BMP280;16051;53.024;8.630;2023-01-16T21:22:20;97648.00;;;4.18
27715;BMP280;16051;53.024;8.630;2023-01-16T21:26:23;97643.78;;;4.22
27715;BMP280;16051;53.024;8.630;2023-01-16T21:30:25;97649.50;;;4.19
27715;BMP280;16051;53.024;8.630;2023-01-16T21:34:38;97641.28;;;4.24
27715;BMP280;16051;53.024;8.630;2023-01-16T21:38:41;97640.78;;;4.20
27715;BMP280;16051;53.024;8.630;2023-01-16T21:42:43;97640.03;;;4.20
27715;BMP280;16051;53.024;8.630;2023-01-16T21:47:03;97642.28;;;4.21
27715;BMP280;16051;53.024;8.630;2023-01-16T21:51:07;97640.31;;;4.22
27715;BMP280;16051;53.024;8.630;2023-01-16T21:55:10;97633.59;;;4.23
27715;BMP280;16051;53.024;8.630;2023-01-16T21:59:13;97633.34;;;4.26
27715;BMP280;16051;53.024;8.630;2023-01-16T22:03:15;97629.13;;;4.25
27715;BMP280;16051;53.024;8.630;2023-01-16T22:07:44;97627.63;;;4.24
27715;BMP280;16051;53.024;8.630;2023-01-16T22:11:46;97623.88;;;4.27
27715;BMP280;16051;53.024;8.630;2023-01-16T22:16:13;97622.66;;;4.28
27715;BMP280;16051;53.024;8.630;2023-01-16T22:20:34;97622.16;;;4.30
27715;BMP280;16051;53.024;8.630;2023-01-16T22:24:43;97627.84;;;4.37
27715;BMP280;16051;53.024;8.630;2023-01-16T22:28:50;97637.72;;;4.46
27715;BMP280;16051;53.024;8.630;2023-01-16T22:32:52;97635.03;;;4.40
27715;BMP280;16051;53.024;8.630;2023-01-16T22:36:54;97627.38;;;4.33
27715;BMP280;16051;53.024;8.630;2023-01-16T22:41:01;97619.13;;;4.39
27715;BMP280;16051;53.024;8.630;2023-01-16T22:45:04;97621.38;;;4.35
27715;BMP280;16051;53.024;8.630;2023-01-16T22:49:24;97620.19;;;4.30
27715;BMP280;16051;53.024;8.630;2023-01-16T22:53:26;97612.94;;;4.33
27715;BMP280;16051;53.024;8.630;2023-01-16T22:57:39;97617.16;;;4.39
27715;BMP280;16051;53.024;8.630;2023-01-16T23:01:42;97612.91;;;4.38
27715;BMP280;16051;53.024;8.630;2023-01-16T23:05:44;97614.16;;;4.43
27715;BMP280;16051;53.024;8.630;2023-01-16T23:09:47;97614.13;;;4.48
27715;BMP280;16051;53.024;8.630;2023-01-16T23:14:09;97611.94;;;4.36
27715;BMP280;16051;53.024;8.630;2023-01-16T23:18:11;97605.97;;;4.43
27715;BMP280;16051;53.024;8.630;2023-01-16T23:22:14;97611.19;;;4.41
27715;BMP280;16051;53.024;8.630;2023-01-16T23:26:44;97624.09;;;4.40
27715;BMP280;16051;53.024;8.630;2023-01-16T23:30:48;97627.31;;;4.39
27715;BMP280;16051;53.024;8.630;2023-01-16T23:34:50;97619.13;;;4.39
27715;BMP280;16051;53.024;8.630;2023-01-16T23:38:54;97625.31;;;4.45
27715;BMP280;16051;53.024;8.630;2023-01-16T23:42:56;97633.25;;;4.48
27715;BMP280;16051;53.024;8.630;2023-01-16T23:47:19;97632.75;;;4.50
27715;BMP280;16051;53.024;8.630;2023-01-16T23:51:22;97623.31;;;4.45
27715;BMP280;16051;53.024;8.630;2023-01-16T23:55:24;97620.59;;;4.51
